sensor_id;sensor_type;location;lat;lon;timestamp;temperature;humidity
41290;DHT22;36117;46.680;11.154;2022-09-16T00:02:21;21.80;79.60
41290;DHT22;36117;46.680;11.154;2022-09-16T00:04:47;22.30;79.10
41290;DHT22;36117;46.680;11.154;2022-09-16T00:07:13;22.50;78.70
41290;DHT22;36117;46.680;11.154;2022-09-16T00:09:39;22.80;78.00
41290;DHT22;36117;46.680;11.154;2022-09-16T00:12:05;22.90;77.60
41290;DHT22;36117;46.680;11.154;2022-09-16T00:14:31;22.90;77.00
41290;DHT22;36117;46.680;11.154;2022-09-16T00:16:57;23.00;77.10
41290;DHT22;36117;46.680;11.154;2022-09-16T00:19:23;22.70;77.10
41290;DHT22;36117;46.680;11.154;2022-09-16T00:21:48;22.50;76.80
41290;DHT22;36117;46.680;11.154;2022-09-16T00:24:15;22.40;77.50
41290;DHT22;36117;46.680;11.154;2022-09-16T00:26:44;22.50;77.20
41290;DHT22;36117;46.680;11.154;2022-09-16T00:29:10;22.60;76.60
41290;DHT22;36117;46.680;11.154;2022-09-16T00:31:36;22.70;76.30
41290;DHT22;36117;46.680;11.154;2022-09-16T00:34:02;22.50;75.10
41290;DHT22;36117;46.680;11.154;2022-09-16T00:36:27;22.60;76.10
41290;DHT22;36117;46.680;11.154;2022-09-16T00:38:54;22.80;76.20
41290;DHT22;36117;46.680;11.154;2022-09-16T00:41:24;22.80;76.70
41290;DHT22;36117;46.680;11.154;2022-09-16T00:43:57;22.90;77.20
41290;DHT22;36117;46.680;11.154;2022-09-16T00:46:44;23.10;77.10
41290;DHT22;36117;46.680;11.154;2022-09-16T00:49:24;23.20;77.70
41290;DHT22;36117;46.680;11.154;2022-09-16T00:51:53;23.10;78.20
41290;DHT22;36117;46.680;11.154;2022-09-16T00:54:22;23.20;77.80
41290;DHT22;36117;46.680;11.154;2022-09-16T00:56:51;22.80;79.10
41290;DHT22;36117;46.680;11.154;2022-09-16T00:59:23;23.00;79.20
41290;DHT22;36117;46.680;11.154;2022-09-16T01:01:52;22.80;79.20
41290;DHT22;36117;46.680;11.154;2022-09-16T01:04:25;22.60;79.80
41290;DHT22;36117;46.680;11.154;2022-09-16T01:06:54;22.20;80.70
41290;DHT22;36117;46.680;11.154;2022-09-16T01:09:22;22.40;81.00
41290;DHT22;36117;46.680;11.154;2022-09-16T01:11:50;22.50;81.20
41290;DHT22;36117;46.680;11.154;2022-09-16T01:14:17;22.80;80.20
41290;DHT22;36117;46.680;11.154;2022-09-16T01:23:47;22.40;81.70
41290;DHT22;36117;46.680;11.154;2022-09-16T01:29:25;22.70;80.90
41290;DHT22;36117;46.680;11.154;2022-09-16T01:35:04;23.00;79.30
41290;DHT22;36117;46.680;11.154;2022-09-16T01:37:58;23.00;77.10
41290;DHT22;36117;46.680;11.154;2022-09-16T01:43:34;22.70;76.40
41290;DHT22;36117;46.680;11.154;2022-09-16T01:49:00;22.60;78.10
41290;DHT22;36117;46.680;11.154;2022-09-16T01:54:28;22.10;78.90
41290;DHT22;36117;46.680;11.154;2022-09-16T01:59:45;21.80;77.60
41290;DHT22;36117;46.680;11.154;2022-09-16T02:05:30;21.30;78.60
41290;DHT22;36117;46.680;11.154;2022-09-16T02:08:08;21.20;77.30
41290;DHT22;36117;46.680;11.154;2022-09-16T02:10:42;21.50;79.70
41290;DHT22;36117;46.680;11.154;2022-09-16T02:13:33;21.90;80.20
41290;DHT22;36117;46.680;11.154;2022-09-16T02:16:03;22.10;80.40
41290;DHT22;36117;46.680;11.154;2022-09-16T02:18:34;22.10;81.10
41290;DHT22;36117;46.680;11.154;2022-09-16T02:21:03;22.60;80.80
41290;DHT22;36117;46.680;11.154;2022-09-16T02:23:51;22.80;80.40
41290;DHT22;36117;46.680;11.154;2022-09-16T02:26:22;22.50;81.10
41290;DHT22;36117;46.680;11.154;2022-09-16T02:28:50;22.80;80.70
41290;DHT22;36117;46.680;11.154;2022-09-16T02:31:20;22.90;79.50
41290;DHT22;36117;46.680;11.154;2022-09-16T02:34:25;22.50;78.90
41290;DHT22;36117;46.680;11.154;2022-09-16T02:36:56;22.30;79.10
41290;DHT22;36117;46.680;11.154;2022-09-16T02:39:28;22.10;78.50
41290;DHT22;36117;46.680;11.154;2022-09-16T02:41:56;22.30;80.00
41290;DHT22;36117;46.680;11.154;2022-09-16T02:44:24;22.40;77.80
41290;DHT22;36117;46.680;11.154;2022-09-16T02:49:56;22.00;78.20
41290;DHT22;36117;46.680;11.154;2022-09-16T02:52:32;22.40;79.80
41290;DHT22;36117;46.680;11.154;2022-09-16T02:57:36;22.10;81.40
41290;DHT22;36117;46.680;11.154;2022-09-16T03:00:04;22.40;80.30
41290;DHT22;36117;46.680;11.154;2022-09-16T03:02:33;22.40;80.00
41290;DHT22;36117;46.680;11.154;2022-09-16T03:05:00;22.10;80.70
41290;DHT22;36117;46.680;11.154;2022-09-16T03:07:26;21.50;77.10
41290;DHT22;36117;46.680;11.154;2022-09-16T03:09:52;21.20;76.90
41290;DHT22;36117;46.680;11.154;2022-09-16T03:15:55;21.40;78.40
41290;DHT22;36117;46.680;11.154;2022-09-16T03:21:37;21.00;84.20
41290;DHT22;36117;46.680;11.154;2022-09-16T03:29:45;21.90;82.00
41290;DHT22;36117;46.680;11.154;2022-09-16T03:32:30;22.20;80.80
41290;DHT22;36117;46.680;11.154;2022-09-16T03:37:44;22.40;79.90
41290;DHT22;36117;46.680;11.154;2022-09-16T03:40:17;21.90;80.30
41290;DHT22;36117;46.680;11.154;2022-09-16T03:42:44;21.50;79.00
41290;DHT22;36117;46.680;11.154;2022-09-16T03:45:16;21.40;78.20
41290;DHT22;36117;46.680;11.154;2022-09-16T03:47:43;21.00;79.50
41290;DHT22;36117;46.680;11.154;2022-09-16T03:50:10;21.20;80.80
41290;DHT22;36117;46.680;11.154;2022-09-16T03:52:36;21.30;81.30
41290;DHT22;36117;46.680;11.154;2022-09-16T03:55:02;21.30;82.70
41290;DHT22;36117;46.680;11.154;2022-09-16T03:57:28;21.50;82.60
41290;DHT22;36117;46.680;11.154;2022-09-16T03:59:55;21.60;82.10
41290;DHT22;36117;46.680;11.154;2022-09-16T04:02:20;21.90;81.10
41290;DHT22;36117;46.680;11.154;2022-09-16T04:04:46;21.70;80.70
41290;DHT22;36117;46.680;11.154;2022-09-16T04:07:12;21.60;81.50
41290;DHT22;36117;46.680;11.154;2022-09-16T04:09:38;21.60;81.40
41290;DHT22;36117;46.680;11.154;2022-09-16T04:12:04;21.50;80.50
41290;DHT22;36117;46.680;11.154;2022-09-16T04:14:32;21.40;81.20
41290;DHT22;36117;46.680;11.154;2022-09-16T04:16:58;21.20;83.20
41290;DHT22;36117;46.680;11.154;2022-09-16T04:19:24;21.10;84.10
41290;DHT22;36117;46.680;11.154;2022-09-16T04:21:50;20.80;84.30
41290;DHT22;36117;46.680;11.154;2022-09-16T04:24:16;20.90;82.20
41290;DHT22;36117;46.680;11.154;2022-09-16T04:26:42;20.90;81.00
41290;DHT22;36117;46.680;11.154;2022-09-16T04:29:08;21.10;79.60
41290;DHT22;36117;46.680;11.154;2022-09-16T04:31:34;21.10;79.50
41290;DHT22;36117;46.680;11.154;2022-09-16T04:34:01;21.30;79.60
41290;DHT22;36117;46.680;11.154;2022-09-16T04:36:27;21.40;79.60
41290;DHT22;36117;46.680;11.154;2022-09-16T04:38:53;21.60;80.10
41290;DHT22;36117;46.680;11.154;2022-09-16T04:41:21;21.60;80.10
41290;DHT22;36117;46.680;11.154;2022-09-16T04:43:52;21.90;80.10
41290;DHT22;36117;46.680;11.154;2022-09-16T04:46:19;21.90;79.30
41290;DHT22;36117;46.680;11.154;2022-09-16T04:48:49;21.70;77.80
41290;DHT22;36117;46.680;11.154;2022-09-16T04:51:15;21.50;79.00
41290;DHT22;36117;46.680;11.154;2022-09-16T04:53:42;21.50;79.40
41290;DHT22;36117;46.680;11.154;2022-09-16T04:56:20;21.30;77.70
41290;DHT22;36117;46.680;11.154;2022-09-16T04:58:48;21.00;76.60
41290;DHT22;36117;46.680;11.154;2022-09-16T05:01:18;20.60;76.30
41290;DHT22;36117;46.680;11.154;2022-09-16T05:03:51;20.80;77.80
41290;DHT22;36117;46.680;11.154;2022-09-16T05:06:19;20.90;79.40
41290;DHT22;36117;46.680;11.154;2022-09-16T05:08:44;20.90;79.70
41290;DHT22;36117;46.680;11.154;2022-09-16T05:11:13;21.00;79.50
41290;DHT22;36117;46.680;11.154;2022-09-16T05:13:39;21.30;79.70
41290;DHT22;36117;46.680;11.154;2022-09-16T05:16:10;21.50;78.40
41290;DHT22;36117;46.680;11.154;2022-09-16T05:18:37;21.60;77.90
41290;DHT22;36117;46.680;11.154;2022-09-16T05:21:06;21.50;77.60
41290;DHT22;36117;46.680;11.154;2022-09-16T05:23:32;21.50;78.30
41290;DHT22;36117;46.680;11.154;2022-09-16T05:26:12;21.40;78.60
41290;DHT22;36117;46.680;11.154;2022-09-16T05:28:39;21.40;78.80
41290;DHT22;36117;46.680;11.154;2022-09-16T05:33:40;21.70;78.60
41290;DHT22;36117;46.680;11.154;2022-09-16T05:36:12;21.70;77.60
41290;DHT22;36117;46.680;11.154;2022-09-16T05:38:38;21.70;77.10
41290;DHT22;36117;46.680;11.154;2022-09-16T05:41:04;21.90;77.90
41290;DHT22;36117;46.680;11.154;2022-09-16T05:43:31;21.70;77.70
41290;DHT22;36117;46.680;11.154;2022-09-16T05:45:57;21.50;77.50
41290;DHT22;36117;46.680;11.154;2022-09-16T05:48:23;21.30;78.70
41290;DHT22;36117;46.680;11.154;2022-09-16T05:50:55;21.40;78.90
41290;DHT22;36117;46.680;11.154;2022-09-16T05:53:22;21.60;79.10
41290;DHT22;36117;46.680;11.154;2022-09-16T05:56:04;21.80;78.00
41290;DHT22;36117;46.680;11.154;2022-09-16T05:58:32;21.90;77.20
41290;DHT22;36117;46.680;11.154;2022-09-16T06:00:59;21.90;77.80
41290;DHT22;36117;46.680;11.154;2022-09-16T06:03:26;22.10;77.40
41290;DHT22;36117;46.680;11.154;2022-09-16T06:06:16;22.10;77.50
41290;DHT22;36117;46.680;11.154;2022-09-16T06:08:39;22.10;77.00
41290;DHT22;36117;46.680;11.154;2022-09-16T06:11:07;22.00;77.00
41290;DHT22;36117;46.680;11.154;2022-09-16T06:13:34;22.40;76.70
41290;DHT22;36117;46.680;11.154;2022-09-16T06:16:00;22.50;76.10
41290;DHT22;36117;46.680;11.154;2022-09-16T06:18:28;22.60;75.60
41290;DHT22;36117;46.680;11.154;2022-09-16T06:20:55;21.80;75.30
41290;DHT22;36117;46.680;11.154;2022-09-16T06:23:22;21.90;75.90
41290;DHT22;36117;46.680;11.154;2022-09-16T06:25:48;22.10;74.70
41290;DHT22;36117;46.680;11.154;2022-09-16T06:28:23;22.20;74.60
41290;DHT22;36117;46.680;11.154;2022-09-16T06:30:49;22.50;73.70
41290;DHT22;36117;46.680;11.154;2022-09-16T06:33:26;22.90;72.90
41290;DHT22;36117;46.680;11.154;2022-09-16T06:35:51;23.70;70.00
41290;DHT22;36117;46.680;11.154;2022-09-16T06:38:18;23.90;68.90
41290;DHT22;36117;46.680;11.154;2022-09-16T06:40:43;25.00;66.10
41290;DHT22;36117;46.680;11.154;2022-09-16T06:43:09;25.50;65.00
41290;DHT22;36117;46.680;11.154;2022-09-16T06:45:35;26.40;62.40
41290;DHT22;36117;46.680;11.154;2022-09-16T06:48:01;27.10;60.90
41290;DHT22;36117;46.680;11.154;2022-09-16T06:50:27;27.70;58.80
41290;DHT22;36117;46.680;11.154;2022-09-16T06:52:53;28.30;56.90
41290;DHT22;36117;46.680;11.154;2022-09-16T06:55:18;27.80;56.30
41290;DHT22;36117;46.680;11.154;2022-09-16T06:58:03;27.90;56.40
41290;DHT22;36117;46.680;11.154;2022-09-16T07:00:29;27.90;55.90
41290;DHT22;36117;46.680;11.154;2022-09-16T07:02:54;27.70;56.30
41290;DHT22;36117;46.680;11.154;2022-09-16T07:05:20;27.90;56.10
41290;DHT22;36117;46.680;11.154;2022-09-16T07:07:46;27.50;55.50
41290;DHT22;36117;46.680;11.154;2022-09-16T07:10:13;26.80;57.30
41290;DHT22;36117;46.680;11.154;2022-09-16T07:12:39;26.40;58.40
41290;DHT22;36117;46.680;11.154;2022-09-16T07:15:05;26.90;57.80
41290;DHT22;36117;46.680;11.154;2022-09-16T07:17:31;26.70;58.20
41290;DHT22;36117;46.680;11.154;2022-09-16T07:19:57;26.40;58.80
41290;DHT22;36117;46.680;11.154;2022-09-16T07:22:23;26.30;59.70
41290;DHT22;36117;46.680;11.154;2022-09-16T07:24:49;26.50;59.30
41290;DHT22;36117;46.680;11.154;2022-09-16T07:27:15;26.90;58.80
41290;DHT22;36117;46.680;11.154;2022-09-16T07:29:40;26.90;58.30
41290;DHT22;36117;46.680;11.154;2022-09-16T07:32:07;27.20;57.70
41290;DHT22;36117;46.680;11.154;2022-09-16T07:34:33;27.60;57.20
41290;DHT22;36117;46.680;11.154;2022-09-16T07:36:58;27.90;56.30
41290;DHT22;36117;46.680;11.154;2022-09-16T07:39:24;28.00;55.70
41290;DHT22;36117;46.680;11.154;2022-09-16T07:41:50;27.70;55.40
41290;DHT22;36117;46.680;11.154;2022-09-16T07:44:17;27.70;56.10
41290;DHT22;36117;46.680;11.154;2022-09-16T07:46:43;27.00;56.60
41290;DHT22;36117;46.680;11.154;2022-09-16T07:49:12;27.50;56.30
41290;DHT22;36117;46.680;11.154;2022-09-16T07:51:38;27.30;56.70
41290;DHT22;36117;46.680;11.154;2022-09-16T07:54:06;27.60;57.30
41290;DHT22;36117;46.680;11.154;2022-09-16T07:56:34;27.20;58.10
41290;DHT22;36117;46.680;11.154;2022-09-16T07:59:02;27.30;58.20
41290;DHT22;36117;46.680;11.154;2022-09-16T08:01:28;27.70;55.70
41290;DHT22;36117;46.680;11.154;2022-09-16T08:03:56;27.40;55.40
41290;DHT22;36117;46.680;11.154;2022-09-16T08:06:24;27.10;56.10
41290;DHT22;36117;46.680;11.154;2022-09-16T08:08:52;27.00;56.70
41290;DHT22;36117;46.680;11.154;2022-09-16T08:11:18;27.00;57.10
41290;DHT22;36117;46.680;11.154;2022-09-16T08:13:44;27.30;56.80
41290;DHT22;36117;46.680;11.154;2022-09-16T08:16:13;27.00;56.60
41290;DHT22;36117;46.680;11.154;2022-09-16T08:18:40;27.60;55.10
41290;DHT22;36117;46.680;11.154;2022-09-16T08:21:09;27.40;54.70
41290;DHT22;36117;46.680;11.154;2022-09-16T08:23:36;27.20;55.00
41290;DHT22;36117;46.680;11.154;2022-09-16T08:26:03;27.70;55.30
41290;DHT22;36117;46.680;11.154;2022-09-16T08:28:30;28.90;52.90
41290;DHT22;36117;46.680;11.154;2022-09-16T08:30:59;28.90;50.90
41290;DHT22;36117;46.680;11.154;2022-09-16T08:33:26;29.10;50.10
41290;DHT22;36117;46.680;11.154;2022-09-16T08:38:30;30.50;48.90
41290;DHT22;36117;46.680;11.154;2022-09-16T08:41:04;31.50;47.10
41290;DHT22;36117;46.680;11.154;2022-09-16T08:43:42;32.00;44.70
41290;DHT22;36117;46.680;11.154;2022-09-16T08:46:50;32.50;44.30
41290;DHT22;36117;46.680;11.154;2022-09-16T08:49:39;32.20;44.60
41290;DHT22;36117;46.680;11.154;2022-09-16T08:52:30;31.20;45.60
41290;DHT22;36117;46.680;11.154;2022-09-16T08:55:14;31.20;46.30
41290;DHT22;36117;46.680;11.154;2022-09-16T09:00:26;32.30;45.00
41290;DHT22;36117;46.680;11.154;2022-09-16T09:05:54;34.50;41.20
41290;DHT22;36117;46.680;11.154;2022-09-16T09:08:44;35.10;40.10
41290;DHT22;36117;46.680;11.154;2022-09-16T09:14:14;34.30;40.80
41290;DHT22;36117;46.680;11.154;2022-09-16T09:17:06;34.70;40.10
41290;DHT22;36117;46.680;11.154;2022-09-16T09:25:44;37.10;37.60
41290;DHT22;36117;46.680;11.154;2022-09-16T09:41:58;38.30;35.70
41290;DHT22;36117;46.680;11.154;2022-09-16T09:44:47;37.90;34.80
41290;DHT22;36117;46.680;11.154;2022-09-16T09:47:33;39.20;34.60
41290;DHT22;36117;46.680;11.154;2022-09-16T09:50:34;39.40;34.10
41290;DHT22;36117;46.680;11.154;2022-09-16T09:55:37;40.10;33.20
41290;DHT22;36117;46.680;11.154;2022-09-16T09:58:36;39.40;33.70
41290;DHT22;36117;46.680;11.154;2022-09-16T10:01:05;38.40;34.20
41290;DHT22;36117;46.680;11.154;2022-09-16T10:03:31;38.60;34.80
41290;DHT22;36117;46.680;11.154;2022-09-16T10:05:57;39.70;33.20
41290;DHT22;36117;46.680;11.154;2022-09-16T10:08:35;39.10;33.60
41290;DHT22;36117;46.680;11.154;2022-09-16T10:11:19;38.80;33.90
41290;DHT22;36117;46.680;11.154;2022-09-16T10:13:56;40.60;31.60
41290;DHT22;36117;46.680;11.154;2022-09-16T10:16:33;40.50;31.10
41290;DHT22;36117;46.680;11.154;2022-09-16T10:19:23;40.70;30.60
41290;DHT22;36117;46.680;11.154;2022-09-16T10:21:53;39.90;31.40
41290;DHT22;36117;46.680;11.154;2022-09-16T10:26:50;41.10;30.50
41290;DHT22;36117;46.680;11.154;2022-09-16T10:29:17;40.90;30.40
41290;DHT22;36117;46.680;11.154;2022-09-16T10:31:44;39.50;31.60
41290;DHT22;36117;46.680;11.154;2022-09-16T10:34:32;39.80;32.50
41290;DHT22;36117;46.680;11.154;2022-09-16T10:39:39;39.60;32.10
41290;DHT22;36117;46.680;11.154;2022-09-16T10:42:25;39.90;31.60
41290;DHT22;36117;46.680;11.154;2022-09-16T10:44:54;39.00;32.10
41290;DHT22;36117;46.680;11.154;2022-09-16T10:47:31;38.50;32.20
41290;DHT22;36117;46.680;11.154;2022-09-16T10:50:00;38.40;33.20
41290;DHT22;36117;46.680;11.154;2022-09-16T10:52:30;36.40;33.60
41290;DHT22;36117;46.680;11.154;2022-09-16T10:54:56;35.90;34.80
41290;DHT22;36117;46.680;11.154;2022-09-16T11:05:38;35.20;35.20
41290;DHT22;36117;46.680;11.154;2022-09-16T11:08:17;34.10;36.30
41290;DHT22;36117;46.680;11.154;2022-09-16T11:19:51;34.00;35.90
41290;DHT22;36117;46.680;11.154;2022-09-16T11:22:29;34.60;35.00
41290;DHT22;36117;46.680;11.154;2022-09-16T11:30:19;32.50;37.80
41290;DHT22;36117;46.680;11.154;2022-09-16T11:33:02;31.50;39.50
41290;DHT22;36117;46.680;11.154;2022-09-16T11:43:37;32.60;38.80
41290;DHT22;36117;46.680;11.154;2022-09-16T11:46:14;33.60;38.10
41290;DHT22;36117;46.680;11.154;2022-09-16T11:48:53;34.00;37.30
41290;DHT22;36117;46.680;11.154;2022-09-16T11:57:19;35.60;35.80
41290;DHT22;36117;46.680;11.154;2022-09-16T12:00:08;36.30;35.30
41290;DHT22;36117;46.680;11.154;2022-09-16T12:10:59;37.90;33.00
41290;DHT22;36117;46.680;11.154;2022-09-16T12:13:43;36.60;33.60
41290;DHT22;36117;46.680;11.154;2022-09-16T12:16:21;35.30;35.20
41290;DHT22;36117;46.680;11.154;2022-09-16T12:18:56;34.30;36.50
41290;DHT22;36117;46.680;11.154;2022-09-16T12:21:27;33.50;38.00
41290;DHT22;36117;46.680;11.154;2022-09-16T12:24:03;33.00;37.60
41290;DHT22;36117;46.680;11.154;2022-09-16T12:26:36;32.20;38.50
41290;DHT22;36117;46.680;11.154;2022-09-16T12:31:54;32.10;38.60
41290;DHT22;36117;46.680;11.154;2022-09-16T12:34:37;32.50;37.50
41290;DHT22;36117;46.680;11.154;2022-09-16T12:40:28;32.80;37.30
41290;DHT22;36117;46.680;11.154;2022-09-16T12:43:18;33.50;36.20
41290;DHT22;36117;46.680;11.154;2022-09-16T12:56:49;34.00;35.50
41290;DHT22;36117;46.680;11.154;2022-09-16T12:59:41;33.80;35.80
41290;DHT22;36117;46.680;11.154;2022-09-16T13:02:16;33.50;35.50
41290;DHT22;36117;46.680;11.154;2022-09-16T13:04:52;33.00;36.10
41290;DHT22;36117;46.680;11.154;2022-09-16T13:07:28;32.60;36.30
41290;DHT22;36117;46.680;11.154;2022-09-16T13:10:05;32.30;37.00
41290;DHT22;36117;46.680;11.154;2022-09-16T13:12:32;31.80;37.70
41290;DHT22;36117;46.680;11.154;2022-09-16T13:15:00;32.20;37.70
41290;DHT22;36117;46.680;11.154;2022-09-16T13:17:35;32.10;37.70
41290;DHT22;36117;46.680;11.154;2022-09-16T13:25:20;32.50;37.50
41290;DHT22;36117;46.680;11.154;2022-09-16T13:30:36;33.50;35.70
41290;DHT22;36117;46.680;11.154;2022-09-16T13:35:46;33.60;36.10
41290;DHT22;36117;46.680;11.154;2022-09-16T13:40:59;33.70;35.90
41290;DHT22;36117;46.680;11.154;2022-09-16T13:46:11;32.40;36.80
41290;DHT22;36117;46.680;11.154;2022-09-16T13:51:24;32.20;37.80
41290;DHT22;36117;46.680;11.154;2022-09-16T13:53:52;31.70;38.40
41290;DHT22;36117;46.680;11.154;2022-09-16T13:56:50;31.70;38.70
41290;DHT22;36117;46.680;11.154;2022-09-16T14:02:14;31.00;39.00
41290;DHT22;36117;46.680;11.154;2022-09-16T14:10:06;31.50;37.80
41290;DHT22;36117;46.680;11.154;2022-09-16T14:13:03;31.90;35.40
41290;DHT22;36117;46.680;11.154;2022-09-16T14:15:38;32.00;34.60
41290;DHT22;36117;46.680;11.154;2022-09-16T14:18:05;32.20;34.80
41290;DHT22;36117;46.680;11.154;2022-09-16T14:20:32;32.40;34.60
41290;DHT22;36117;46.680;11.154;2022-09-16T14:23:03;32.30;35.10
41290;DHT22;36117;46.680;11.154;2022-09-16T14:25:33;31.90;34.80
41290;DHT22;36117;46.680;11.154;2022-09-16T14:28:21;31.90;35.70
41290;DHT22;36117;46.680;11.154;2022-09-16T14:30:57;31.60;36.40
41290;DHT22;36117;46.680;11.154;2022-09-16T14:33:29;31.60;34.80
41290;DHT22;36117;46.680;11.154;2022-09-16T14:35:56;31.50;34.70
41290;DHT22;36117;46.680;11.154;2022-09-16T14:38:42;31.50;34.70
41290;DHT22;36117;46.680;11.154;2022-09-16T14:41:09;31.70;34.70
41290;DHT22;36117;46.680;11.154;2022-09-16T14:43:37;31.40;35.30
41290;DHT22;36117;46.680;11.154;2022-09-16T14:46:05;31.30;35.60
41290;DHT22;36117;46.680;11.154;2022-09-16T14:48:34;31.50;35.40
41290;DHT22;36117;46.680;11.154;2022-09-16T14:51:01;31.60;35.10
41290;DHT22;36117;46.680;11.154;2022-09-16T14:53:32;31.70;34.10
41290;DHT22;36117;46.680;11.154;2022-09-16T14:56:01;31.80;34.20
41290;DHT22;36117;46.680;11.154;2022-09-16T14:58:29;32.00;34.20
41290;DHT22;36117;46.680;11.154;2022-09-16T15:01:15;31.80;34.70
41290;DHT22;36117;46.680;11.154;2022-09-16T15:04:07;31.60;34.60
41290;DHT22;36117;46.680;11.154;2022-09-16T15:06:40;31.20;34.90
41290;DHT22;36117;46.680;11.154;2022-09-16T15:09:20;30.60;35.10
41290;DHT22;36117;46.680;11.154;2022-09-16T15:11:54;30.70;35.70
41290;DHT22;36117;46.680;11.154;2022-09-16T15:14:21;30.40;36.00
41290;DHT22;36117;46.680;11.154;2022-09-16T15:16:59;30.00;36.70
41290;DHT22;36117;46.680;11.154;2022-09-16T15:19:38;30.10;36.80
41290;DHT22;36117;46.680;11.154;2022-09-16T15:22:07;30.10;37.30
41290;DHT22;36117;46.680;11.154;2022-09-16T15:24:39;30.10;36.70
41290;DHT22;36117;46.680;11.154;2022-09-16T15:27:06;30.10;36.90
41290;DHT22;36117;46.680;11.154;2022-09-16T15:29:34;29.80;37.60
41290;DHT22;36117;46.680;11.154;2022-09-16T15:32:16;29.70;36.50
41290;DHT22;36117;46.680;11.154;2022-09-16T15:34:43;29.70;36.10
41290;DHT22;36117;46.680;11.154;2022-09-16T15:37:31;29.30;35.10
41290;DHT22;36117;46.680;11.154;2022-09-16T15:42:47;28.80;39.10
41290;DHT22;36117;46.680;11.154;2022-09-16T15:45:16;28.60;39.30
41290;DHT22;36117;46.680;11.154;2022-09-16T15:47:55;28.50;39.70
41290;DHT22;36117;46.680;11.154;2022-09-16T15:50:22;28.40;39.60
41290;DHT22;36117;46.680;11.154;2022-09-16T15:53:04;28.00;39.60
41290;DHT22;36117;46.680;11.154;2022-09-16T16:00:58;27.80;39.20
41290;DHT22;36117;46.680;11.154;2022-09-16T16:03:26;27.80;38.90
41290;DHT22;36117;46.680;11.154;2022-09-16T16:05:55;28.00;38.40
41290;DHT22;36117;46.680;11.154;2022-09-16T16:08:50;28.00;38.30
41290;DHT22;36117;46.680;11.154;2022-09-16T16:11:19;27.90;38.40
41290;DHT22;36117;46.680;11.154;2022-09-16T16:13:45;27.80;38.20
41290;DHT22;36117;46.680;11.154;2022-09-16T16:16:30;27.80;39.20
41290;DHT22;36117;46.680;11.154;2022-09-16T16:18:58;27.40;39.90
41290;DHT22;36117;46.680;11.154;2022-09-16T16:21:24;27.10;40.30
41290;DHT22;36117;46.680;11.154;2022-09-16T16:23:49;27.10;40.20
41290;DHT22;36117;46.680;11.154;2022-09-16T16:26:15;26.90;40.60
41290;DHT22;36117;46.680;11.154;2022-09-16T16:28:41;27.00;40.50
41290;DHT22;36117;46.680;11.154;2022-09-16T16:31:15;26.80;40.00
41290;DHT22;36117;46.680;11.154;2022-09-16T16:33:45;26.90;40.30
41290;DHT22;36117;46.680;11.154;2022-09-16T16:36:16;26.70;40.40
41290;DHT22;36117;46.680;11.154;2022-09-16T16:38:43;26.60;41.80
41290;DHT22;36117;46.680;11.154;2022-09-16T16:41:11;26.40;41.40
41290;DHT22;36117;46.680;11.154;2022-09-16T16:43:38;26.30;41.00
41290;DHT22;36117;46.680;11.154;2022-09-16T16:48:48;26.30;41.40
41290;DHT22;36117;46.680;11.154;2022-09-16T16:51:14;26.30;41.50
41290;DHT22;36117;46.680;11.154;2022-09-16T16:53:40;26.10;41.50
41290;DHT22;36117;46.680;11.154;2022-09-16T16:56:10;26.00;41.90
41290;DHT22;36117;46.680;11.154;2022-09-16T16:58:38;26.00;42.20
41290;DHT22;36117;46.680;11.154;2022-09-16T17:03:32;25.80;41.20
41290;DHT22;36117;46.680;11.154;2022-09-16T17:05:58;25.90;42.10
41290;DHT22;36117;46.680;11.154;2022-09-16T17:08:24;25.70;42.60
41290;DHT22;36117;46.680;11.154;2022-09-16T17:11:10;25.50;42.60
41290;DHT22;36117;46.680;11.154;2022-09-16T17:13:38;25.60;43.00
41290;DHT22;36117;46.680;11.154;2022-09-16T17:16:05;25.40;42.10
41290;DHT22;36117;46.680;11.154;2022-09-16T17:18:36;25.40;43.00
41290;DHT22;36117;46.680;11.154;2022-09-16T17:21:04;25.50;42.80
41290;DHT22;36117;46.680;11.154;2022-09-16T17:23:30;25.60;40.40
41290;DHT22;36117;46.680;11.154;2022-09-16T17:25:56;25.60;39.60
41290;DHT22;36117;46.680;11.154;2022-09-16T17:28:22;25.70;41.20
41290;DHT22;36117;46.680;11.154;2022-09-16T17:30:48;25.60;42.00
41290;DHT22;36117;46.680;11.154;2022-09-16T17:33:14;25.40;40.90
41290;DHT22;36117;46.680;11.154;2022-09-16T17:35:40;25.60;41.20
41290;DHT22;36117;46.680;11.154;2022-09-16T17:38:09;25.50;40.80
41290;DHT22;36117;46.680;11.154;2022-09-16T17:43:57;25.30;42.00
41290;DHT22;36117;46.680;11.154;2022-09-16T17:46:25;24.90;38.80
41290;DHT22;36117;46.680;11.154;2022-09-16T17:49:05;25.10;39.10
41290;DHT22;36117;46.680;11.154;2022-09-16T17:51:32;25.40;39.00
41290;DHT22;36117;46.680;11.154;2022-09-16T17:53:58;25.60;40.10
41290;DHT22;36117;46.680;11.154;2022-09-16T17:56:24;25.60;40.60
41290;DHT22;36117;46.680;11.154;2022-09-16T17:58:51;25.50;38.80
41290;DHT22;36117;46.680;11.154;2022-09-16T18:01:20;25.60;38.80
41290;DHT22;36117;46.680;11.154;2022-09-16T18:03:48;25.80;39.10
41290;DHT22;36117;46.680;11.154;2022-09-16T18:06:23;25.70;38.90
41290;DHT22;36117;46.680;11.154;2022-09-16T18:08:49;25.50;39.00
41290;DHT22;36117;46.680;11.154;2022-09-16T18:11:16;25.40;40.90
41290;DHT22;36117;46.680;11.154;2022-09-16T18:13:43;25.10;42.10
41290;DHT22;36117;46.680;11.154;2022-09-16T18:16:15;24.90;41.10
41290;DHT22;36117;46.680;11.154;2022-09-16T18:18:42;24.90;41.10
41290;DHT22;36117;46.680;11.154;2022-09-16T18:21:11;24.90;39.60
41290;DHT22;36117;46.680;11.154;2022-09-16T18:23:40;24.80;41.50
41290;DHT22;36117;46.680;11.154;2022-09-16T18:26:12;24.80;41.90
41290;DHT22;36117;46.680;11.154;2022-09-16T18:28:41;24.80;39.30
41290;DHT22;36117;46.680;11.154;2022-09-16T18:31:10;24.90;38.90
41290;DHT22;36117;46.680;11.154;2022-09-16T18:33:37;25.10;38.20
41290;DHT22;36117;46.680;11.154;2022-09-16T18:36:07;25.00;38.30
41290;DHT22;36117;46.680;11.154;2022-09-16T18:38:34;25.10;38.00
41290;DHT22;36117;46.680;11.154;2022-09-16T18:41:08;25.30;38.00
41290;DHT22;36117;46.680;11.154;2022-09-16T18:43:36;25.40;36.30
41290;DHT22;36117;46.680;11.154;2022-09-16T18:48:38;25.10;39.90
41290;DHT22;36117;46.680;11.154;2022-09-16T18:51:04;25.10;37.90
41290;DHT22;36117;46.680;11.154;2022-09-16T18:53:31;25.20;37.60
41290;DHT22;36117;46.680;11.154;2022-09-16T18:55:57;25.30;38.40
41290;DHT22;36117;46.680;11.154;2022-09-16T18:58:22;25.30;37.70